Time;durP1;ratioP1;P1;durP2;ratioP2;P2;SDS_P1;SDS_P2;PMS_P1;PMS_P2;Temp;Humidity;BMP_temperature;BMP_pressure;BME280_temperature;BME280_humidity;BME280_pressure;Samples;Min_cycle;Max_cycle;Signal;HPM_P1;HPM_P2
2023/05/13 00:01:26;;;;;;;5.23;3.07;;;17.20;99.90;;;17.42;60.88;101468.81;4935942;28;114309;-52
2023/05/13 00:03:52;;;;;;;3.27;2.43;;;17.20;99.90;;;17.37;60.85;101465.53;4930954;28;99324;-47
2023/05/13 00:06:18;;;;;;;6.93;2.97;;;17.10;99.90;;;17.39;60.90;101458.31;4932519;28;108242;-52
2023/05/13 00:08:44;;;;;;;2.17;1.60;;;17.10;99.90;;;17.41;60.69;101461.78;4929534;28;97458;-47
2023/05/13 00:11:10;;;;;;;3.17;2.10;;;17.20;99.90;;;17.49;60.57;101458.69;4930585;28;117547;-49
2023/05/13 00:13:36;;;;;;;4.50;2.80;;;17.40;99.90;;;17.55;60.07;101459.25;4931354;28;105945;-44
2023/05/13 00:16:02;;;;;;;1.47;1.23;;;17.50;99.90;;;17.61;60.12;101457.19;4931826;28;96993;-47
2023/05/13 00:18:28;;;;;;;3.50;2.60;;;17.50;99.90;;;17.60;60.28;101464.34;4936183;28;97160;-49
2023/05/13 00:20:55;;;;;;;1.70;1.60;;;17.50;99.90;;;17.64;60.21;101462.34;4928908;28;97364;-51
2023/05/13 00:23:21;;;;;;;4.90;3.10;;;17.50;99.90;;;17.57;60.45;101455.63;4931135;28;99023;-47
2023/05/13 00:25:47;;;;;;;2.43;1.90;;;17.50;99.90;;;17.61;60.22;101459.88;4939372;28;97251;-50
2023/05/13 00:28:13;;;;;;;4.13;3.03;;;17.40;99.90;;;17.48;60.57;101456.97;4933314;28;119275;-48
2023/05/13 00:30:42;;;;;;;2.63;1.63;;;17.30;99.90;;;17.54;60.36;101462.88;4927537;28;98116;-48
2023/05/13 00:33:08;;;;;;;2.27;1.80;;;17.40;99.90;;;17.55;60.47;101464.59;4930318;28;97818;-49
2023/05/13 00:35:34;;;;;;;4.37;3.20;;;17.40;99.90;;;17.52;60.16;101462.09;4931047;28;97687;-51
2023/05/13 00:38:00;;;;;;;3.67;2.83;;;17.30;99.90;;;17.55;60.05;101459.25;4929423;28;98444;-48
2023/05/13 00:40:26;;;;;;;6.23;3.03;;;17.40;99.90;;;17.51;60.33;101457.69;4934745;28;97358;-49
2023/05/13 00:42:53;;;;;;;4.87;2.93;;;17.30;99.90;;;17.48;60.33;101457.81;4926794;28;97477;-48
2023/05/13 00:45:20;;;;;;;3.90;3.10;;;17.20;99.90;;;17.47;60.21;101465.91;4929817;28;98424;-48
2023/05/13 00:47:47;;;;;;;4.40;2.80;;;17.20;99.90;;;17.42;60.57;101468.81;4929008;28;99080;-48
2023/05/13 00:50:13;;;;;;;5.50;3.30;;;17.10;99.90;;;17.39;60.83;101473.47;4932068;28;125481;-46
2023/05/13 00:52:41;;;;;;;2.93;1.90;;;17.10;99.90;;;17.36;60.64;101473.59;4927743;28;97373;-50
2023/05/13 00:55:08;;;;;;;3.70;3.10;;;17.00;99.90;;;17.35;60.45;101472.72;4933521;28;97583;-50
2023/05/13 00:57:35;;;;;;;3.57;2.60;;;17.10;99.90;;;17.34;60.86;101471.00;4929464;28;99132;-57
2023/05/13 01:00:04;;;;;;;2.50;1.90;;;17.00;99.90;;;17.32;61.06;101462.22;4933703;28;98062;-49
2023/05/13 01:02:45;;;;;;;3.60;2.73;;;17.00;99.90;;;17.34;61.00;101463.00;4935168;28;99910;-49
2023/05/13 01:05:37;;;;;;;2.30;1.77;;;17.10;99.90;;;17.35;60.73;101462.06;4937991;28;97355;-47
2023/05/13 01:08:16;;;;;;;1.97;1.50;;;17.10;99.90;;;17.40;60.75;101460.03;4934494;28;100374;-46
2023/05/13 01:10:56;;;;;;;4.57;3.47;;;17.20;99.90;;;17.41;59.47;101456.44;4924361;28;97174;-48
2023/05/13 01:13:26;;;;;;;3.97;3.17;;;17.30;99.90;;;17.40;60.44;101454.72;4928870;28;98068;-50
2023/05/13 01:16:26;;;;;;;2.50;1.40;;;17.20;99.90;;;17.37;60.59;101454.88;4926661;28;97531;-50
2023/05/13 01:18:58;;;;;;;3.03;1.80;;;17.10;99.90;;;17.33;61.08;101461.28;4910150;28;97580;-53
2023/05/13 01:21:28;;;;;;;3.40;2.97;;;17.00;99.90;;;17.27;60.17;101458.94;4934430;28;98189;-46
2023/05/13 01:23:54;;;;;;;4.50;3.20;;;17.00;99.90;;;17.14;60.43;101456.03;4930473;28;99036;-47
2023/05/13 01:26:22;;;;;;;4.07;3.27;;;16.80;99.90;;;17.16;61.41;101458.63;4934048;28;97584;-50
2023/05/13 01:28:48;;;;;;;3.83;2.23;;;16.80;99.90;;;17.18;61.37;101454.94;4931338;28;97336;-49
2023/05/13 01:31:14;;;;;;;1.97;1.67;;;16.80;99.90;;;17.19;61.25;101455.78;4929186;28;100292;-50
2023/05/13 01:33:42;;;;;;;3.83;2.67;;;16.80;99.90;;;17.19;61.04;101447.78;4931848;28;99025;-51
2023/05/13 01:36:09;;;;;;;2.03;1.70;;;16.90;99.90;;;17.17;61.60;101452.34;4929241;28;114514;-47
2023/05/13 01:38:36;;;;;;;3.80;3.33;;;16.80;99.90;;;17.01;60.67;101440.72;4933362;28;97562;-48
2023/05/13 01:41:02;;;;;;;4.13;3.13;;;16.70;99.90;;;17.08;60.89;101458.16;4920865;28;112356;-47
2023/05/13 01:43:27;;;;;;;3.27;2.00;;;16.80;99.90;;;17.12;61.76;101465.06;4921638;28;101228;-52
2023/05/13 01:45:54;;;;;;;3.93;2.90;;;16.90;99.90;;;17.14;61.58;101464.03;4926662;28;103440;-49
2023/05/13 01:48:19;;;;;;;4.47;3.20;;;16.90;99.90;;;17.14;60.22;101457.84;4920970;28;126784;-48
2023/05/13 01:50:45;;;;;;;4.03;3.00;;;16.90;99.90;;;17.14;60.20;101460.50;4917409;28;97904;-49
2023/05/13 01:53:11;;;;;;;2.87;2.23;;;16.90;99.90;;;17.08;61.55;101463.50;4946623;28;97050;-48
2023/05/13 01:55:37;;;;;;;6.87;3.23;;;16.80;99.90;;;17.03;60.88;101460.16;4964274;28;97479;-51
2023/05/13 01:58:03;;;;;;;2.83;2.47;;;16.80;99.90;;;17.03;60.54;101458.38;4978719;28;112163;-53
2023/05/13 02:00:29;;;;;;;3.70;3.20;;;16.70;99.90;;;17.00;61.00;101465.66;4973033;27;97933;-53
2023/05/13 02:02:55;;;;;;;2.83;1.57;;;16.70;99.90;;;17.01;61.71;101468.25;4961606;28;97676;-51
2023/05/13 02:05:21;;;;;;;4.30;3.07;;;16.70;99.90;;;17.00;61.62;101468.31;4976540;28;97021;-49
2023/05/13 02:07:47;;;;;;;3.60;2.20;;;16.60;99.90;;;16.97;61.87;101463.16;4949470;27;97527;-51
2023/05/13 02:10:13;;;;;;;3.17;2.67;;;16.60;99.90;;;16.98;61.69;101467.53;4978207;28;96931;-52
2023/05/13 02:12:39;;;;;;;2.03;1.70;;;16.60;99.90;;;16.97;62.23;101465.81;4977059;28;97065;-48
2023/05/13 02:15:06;;;;;;;3.47;2.90;;;16.70;99.90;;;16.95;61.53;101457.91;4974368;28;97243;-49
2023/05/13 02:17:32;;;;;;;3.20;2.17;;;16.60;99.90;;;17.01;61.97;101462.06;4963933;27;97011;-49
2023/05/13 02:19:57;;;;;;;2.20;1.70;;;16.70;99.90;;;17.00;61.93;101463.00;4974414;28;96955;-48
2023/05/13 02:22:23;;;;;;;4.73;3.40;;;16.70;99.90;;;17.00;60.82;101471.00;4965978;28;97202;-48
2023/05/13 02:24:49;;;;;;;4.10;2.93;;;16.70;99.90;;;17.01;60.45;101467.38;4968838;28;97853;-50
2023/05/13 02:27:15;;;;;;;2.10;1.90;;;16.70;99.90;;;17.02;62.00;101477.09;4966872;28;98819;-49
2023/05/13 02:29:41;;;;;;;4.90;3.00;;;16.70;99.90;;;17.07;60.96;101472.41;4962872;28;97816;-48
2023/05/13 02:32:07;;;;;;;2.83;1.93;;;16.80;99.90;;;17.08;61.41;101464.34;4970174;28;96809;-46
2023/05/13 02:34:33;;;;;;;3.60;2.80;;;16.80;99.90;;;17.04;60.75;101467.22;4969196;28;97370;-49
2023/05/13 02:36:59;;;;;;;2.07;1.90;;;16.70;99.90;;;17.05;61.73;101468.94;4963549;28;97286;-48
2023/05/13 02:39:24;;;;;;;4.77;3.07;;;16.70;99.90;;;17.03;60.93;101454.84;4969843;28;98227;-48
2023/05/13 02:41:50;;;;;;;1.90;1.70;;;16.70;99.90;;;17.06;61.84;101463.53;4963774;28;96898;-46
2023/05/13 02:44:16;;;;;;;1.67;1.57;;;16.80;99.90;;;17.12;61.62;101460.59;4972345;28;97503;-47
2023/05/13 02:46:43;;;;;;;2.40;1.83;;;16.90;99.90;;;17.15;61.18;101459.56;4976337;28;97354;-49
2023/05/13 02:49:10;;;;;;;5.37;2.47;;;17.00;99.90;;;17.16;61.20;101456.81;4971640;28;97564;-46
2023/05/13 02:51:36;;;;;;;3.37;1.83;;;16.90;99.90;;;17.21;60.92;101456.56;4966058;27;97659;-52
2023/05/13 02:54:04;;;;;;;2.00;1.60;;;17.00;99.90;;;17.23;61.07;101452.91;4977962;28;97169;-46
2023/05/13 02:56:30;;;;;;;2.23;2.03;;;17.00;99.90;;;17.29;61.04;101457.06;4972807;28;97612;-48
2023/05/13 02:58:56;;;;;;;1.80;1.60;;;17.10;99.90;;;17.32;60.41;101451.56;4929876;28;106065;-50
2023/05/13 03:01:22;;;;;;;2.17;1.60;;;17.10;99.90;;;17.33;60.70;101455.94;4944024;28;96988;-51
2023/05/13 03:03:47;;;;;;;4.57;2.53;;;17.10;99.90;;;17.34;60.38;101463.00;4958210;28;97080;-46
2023/05/13 03:06:13;;;;;;;5.80;3.07;;;17.10;99.90;;;17.33;60.41;101457.75;4961895;28;114862;-47
2023/05/13 03:08:39;;;;;;;2.40;1.57;;;17.10;99.90;;;17.31;60.95;101457.84;4958435;28;124277;-50
2023/05/13 03:11:05;;;;;;;3.50;2.57;;;17.00;99.90;;;17.32;60.75;101462.22;4985056;28;97361;-50
2023/05/13 03:13:30;;;;;;;3.77;2.50;;;17.00;99.90;;;17.23;60.06;101458.25;4978547;28;98286;-49
2023/05/13 03:15:56;;;;;;;2.50;2.00;;;16.90;99.90;;;17.20;60.92;101457.50;4957187;28;97720;-47
2023/05/13 03:18:22;;;;;;;3.20;2.90;;;16.80;99.90;;;17.17;61.12;101458.53;4968159;28;97355;-50
2023/05/13 03:20:48;;;;;;;3.60;2.60;;;16.80;99.90;;;17.17;61.10;101457.66;4980284;27;97548;-48
2023/05/13 03:23:13;;;;;;;3.03;2.47;;;16.80;99.90;;;17.13;61.04;101456.97;4970758;28;96920;-47
2023/05/13 03:25:39;;;;;;;2.23;1.87;;;16.70;99.90;;;17.11;61.27;101460.66;4952359;28;99839;-47
2023/05/13 03:28:05;;;;;;;2.67;2.10;;;16.70;99.90;;;17.11;61.60;101458.00;4964046;28;97388;-50
2023/05/13 03:30:31;;;;;;;3.00;2.13;;;16.80;99.90;;;17.12;61.61;101459.72;4982756;28;97477;-49
2023/05/13 03:32:57;;;;;;;3.37;2.47;;;16.80;99.90;;;17.15;61.01;101460.41;4974495;27;97605;-47
2023/05/13 03:35:23;;;;;;;2.47;1.80;;;16.90;99.90;;;17.07;61.22;101459.06;4969196;28;116784;-51
2023/05/13 03:37:49;;;;;;;1.97;1.67;;;16.70;99.90;;;17.13;61.44;101466.78;4960528;28;100239;-49
2023/05/13 03:40:15;;;;;;;4.23;1.87;;;16.90;99.90;;;17.13;61.33;101462.31;4976759;27;107675;-48
2023/05/13 03:42:40;;;;;;;3.23;1.97;;;16.90;99.90;;;17.17;61.16;101457.66;4972017;28;97485;-47
2023/05/13 03:45:07;;;;;;;3.73;2.20;;;16.90;99.90;;;17.21;61.11;101464.56;4965845;28;99901;-46
2023/05/13 03:47:34;;;;;;;1.50;1.40;;;17.00;99.90;;;17.23;61.21;101462.72;4981733;28;99231;-47
2023/05/13 03:50:00;;;;;;;2.60;1.63;;;17.00;99.90;;;17.23;60.78;101462.72;4971961;28;96994;-46
2023/05/13 03:52:26;;;;;;;2.20;2.00;;;17.00;99.90;;;17.26;60.81;101465.22;5011367;22;97153;-48
2023/05/13 03:54:52;;;;;;;3.27;2.17;;;17.00;99.90;;;17.31;61.05;101465.84;5008776;27;97459;-46
2023/05/13 03:57:17;;;;;;;7.07;2.90;;;17.10;99.90;;;17.31;60.32;101468.50;5020993;27;96968;-49
2023/05/13 03:59:43;;;;;;;3.10;2.27;;;17.10;99.90;;;17.24;60.24;101467.09;4988699;27;113340;-48
2023/05/13 04:02:09;;;;;;;2.70;2.50;;;17.00;99.90;;;17.20;60.68;101462.84;4980907;28;98984;-48
2023/05/13 04:04:34;;;;;;;2.47;2.00;;;16.90;99.90;;;17.15;61.15;101471.09;4982696;27;125147;-50
2023/05/13 04:07:00;;;;;;;3.37;2.20;;;16.80;99.90;;;17.11;61.46;101468.66;4978682;28;121722;-45
2023/05/13 04:09:26;;;;;;;1.90;1.73;;;16.70;99.90;;;17.11;61.53;101463.31;4980395;28;97419;-46
2023/05/13 04:11:51;;;;;;;2.10;1.90;;;16.80;99.90;;;17.11;61.22;101471.31;4972466;28;97418;-46
2023/05/13 04:14:18;;;;;;;3.20;2.03;;;16.80;99.90;;;17.13;61.40;101478.31;4983166;27;97639;-46
2023/05/13 04:16:43;;;;;;;1.90;1.43;;;16.80;99.90;;;17.17;61.33;101476.34;4973419;27;97487;-50
2023/05/13 04:19:10;;;;;;;3.87;3.00;;;16.90;99.90;;;17.17;60.89;101473.66;4976888;28;100288;-49
2023/05/13 04:21:36;;;;;;;2.20;1.93;;;16.90;99.90;;;17.17;61.04;101476.34;4973916;27;97491;-49
2023/05/13 04:24:02;;;;;;;3.27;1.90;;;16.80;99.90;;;17.15;61.18;101478.22;4981421;27;97200;-48
2023/05/13 04:26:27;;;;;;;7.80;2.97;;;16.80;99.90;;;17.15;61.07;101472.88;4982601;27;113770;-50
2023/05/13 04:28:53;;;;;;;2.23;2.03;;;16.80;99.90;;;17.09;61.14;101473.22;4983041;27;97483;-46
2023/05/13 04:31:20;;;;;;;3.53;2.93;;;16.70;99.90;;;17.08;61.21;101482.16;4972947;27;97397;-48
2023/05/13 04:33:46;;;;;;;5.70;2.53;;;16.70;99.90;;;17.06;61.13;101481.34;4966181;28;98769;-50
2023/05/13 04:36:11;;;;;;;3.93;3.03;;;16.70;99.90;;;17.02;61.30;101479.75;4971710;28;113850;-48
2023/05/13 04:38:37;;;;;;;4.20;3.17;;;16.60;99.90;;;17.00;61.40;101477.19;4977379;28;97089;-48
2023/05/13 04:41:04;;;;;;;3.33;2.27;;;16.60;99.90;;;17.00;61.74;101481.66;5161759;22;97958;-46
2023/05/13 04:43:30;;;;;;;5.97;2.70;;;16.60;99.90;;;16.97;61.37;101481.81;4991572;27;98304;-46
2023/05/13 04:45:56;;;;;;;5.23;3.33;;;16.60;99.90;;;16.93;61.62;101481.97;4995648;27;97578;-47
2023/05/13 04:48:22;;;;;;;7.00;2.60;;;16.60;99.90;;;16.92;61.97;101485.56;4983225;27;104506;-50
2023/05/13 04:50:49;;;;;;;3.30;2.60;;;16.50;99.90;;;16.93;61.67;101481.97;4962995;28;97403;-45
2023/05/13 04:53:15;;;;;;;4.40;2.67;;;16.60;99.90;;;16.94;61.86;101488.16;4973072;28;117135;-45
2023/05/13 04:55:41;;;;;;;2.77;2.00;;;16.60;99.90;;;16.93;61.78;101492.63;4959750;28;97560;-47
2023/05/13 04:58:07;;;;;;;4.10;2.60;;;16.60;99.90;;;16.95;61.83;101482.75;4972847;27;97425;-47
2023/05/13 05:00:32;;;;;;;4.53;2.77;;;16.60;99.90;;;16.97;61.74;101481.81;4971812;27;96996;-45
2023/05/13 05:02:58;;;;;;;4.47;3.13;;;16.60;99.90;;;16.94;61.85;101483.69;4969129;28;97556;-45
2023/05/13 05:05:24;;;;;;;3.47;2.33;;;16.60;99.90;;;16.93;61.67;101491.75;4981850;28;97778;-49
2023/05/13 05:07:50;;;;;;;2.80;1.73;;;16.60;99.90;;;16.97;61.93;101492.47;4973785;28;100678;-45
2023/05/13 05:10:16;;;;;;;3.50;2.87;;;16.60;99.90;;;16.98;61.67;101492.38;4980347;28;97433;-45
2023/05/13 05:12:41;;;;;;;4.87;2.87;;;16.70;99.90;;;16.97;61.43;101492.47;4971385;28;97184;-46
2023/05/13 05:15:14;;;;;;;5.43;3.17;;;16.60;99.90;;;16.95;61.55;101490.75;4980082;28;100351;-49
2023/05/13 05:17:53;;;;;;;1.83;1.53;;;16.60;99.90;;;16.95;62.16;101495.22;4976218;28;97055;-45
2023/05/13 05:20:19;;;;;;;2.67;1.70;;;16.60;99.90;;;17.02;61.86;101501.09;4981335;27;97249;-48
2023/05/13 05:22:45;;;;;;;2.70;2.13;;;16.80;99.90;;;17.09;61.55;101502.53;4976837;28;97584;-46
2023/05/13 05:25:10;;;;;;;2.13;1.53;;;16.90;99.90;;;17.18;61.43;101515.38;4987623;27;98502;-44
2023/05/13 05:27:36;;;;;;;2.17;1.70;;;17.00;99.90;;;17.26;61.07;101515.88;4973570;27;97562;-45
2023/05/13 05:30:02;;;;;;;1.73;1.63;;;17.10;99.90;;;17.33;60.86;101511.09;4980689;27;97335;-46
2023/05/13 05:32:28;;;;;;;2.97;1.90;;;17.20;99.90;;;17.40;60.50;101512.53;4979134;28;97458;-45
2023/05/13 05:34:54;;;;;;;4.07;2.63;;;17.40;99.90;;;17.47;60.21;101512.13;4965474;28;125297;-47
2023/05/13 05:37:20;;;;;;;1.37;1.20;;;17.40;99.90;;;17.57;60.08;101517.00;4983484;28;97127;-44
2023/05/13 05:39:48;;;;;;;2.33;1.70;;;17.50;99.90;;;17.65;59.58;101520.09;4981963;28;97294;-45
2023/05/13 05:42:14;;;;;;;1.90;1.60;;;17.70;99.90;;;17.71;59.60;101525.19;4979291;27;97598;-45
2023/05/13 05:44:40;;;;;;;1.90;1.43;;;17.70;99.90;;;17.76;59.14;101521.31;4975540;28;97511;-51
2023/05/13 05:47:06;;;;;;;1.70;1.43;;;17.80;99.90;;;17.83;59.16;101521.88;4978196;28;98441;-49
2023/05/13 05:49:31;;;;;;;1.83;1.73;;;17.90;99.90;;;17.90;58.90;101528.59;4974892;28;97448;-53
2023/05/13 05:51:59;;;;;;;3.70;2.83;;;17.90;99.90;;;17.94;59.27;101530.19;4976660;28;117133;-48
2023/05/13 05:54:26;;;;;;;4.73;3.00;;;18.00;99.90;;;17.94;58.85;101519.53;4971084;27;97466;-51
2023/05/13 05:56:51;;;;;;;5.30;3.77;;;17.90;99.90;;;17.94;59.10;101519.53;4979211;28;97078;-50
2023/05/13 05:59:17;;;;;;;3.43;3.07;;;17.90;99.90;;;17.91;59.12;101532.13;4980531;27;104141;-49
2023/05/13 06:01:43;;;;;;;1.87;1.70;;;17.80;99.90;;;17.91;59.10;101530.34;4971176;28;115896;-53
2023/05/13 06:04:09;;;;;;;3.50;2.73;;;17.80;99.90;;;17.91;59.17;101529.47;4977349;28;126871;-45
2023/05/13 06:06:35;;;;;;;2.00;1.70;;;17.80;99.90;;;17.93;58.74;101536.44;4974828;28;97896;-50
2023/05/13 06:09:01;;;;;;;1.60;1.30;;;17.90;99.90;;;17.96;58.46;101530.97;4979254;27;97677;-53
2023/05/13 06:11:26;;;;;;;3.40;2.47;;;17.90;99.90;;;18.02;58.34;101535.13;4973631;27;97394;-49
2023/05/13 06:13:53;;;;;;;2.83;1.47;;;18.10;99.90;;;18.02;58.56;101537.78;4966214;28;102232;-49
2023/05/13 06:16:19;;;;;;;1.73;1.63;;;18.10;99.90;;;18.09;58.43;101528.53;4970860;28;98195;-51
2023/05/13 06:18:44;;;;;;;2.07;1.57;;;18.10;99.90;;;18.10;58.06;101525.78;4977723;28;101794;-49
2023/05/13 06:21:10;;;;;;;1.93;1.73;;;18.20;99.90;;;18.16;58.03;101526.38;4974301;28;118356;-52
2023/05/13 06:23:36;;;;;;;4.10;3.33;;;18.20;99.90;;;18.20;57.81;101519.91;4978435;28;97076;-52
2023/05/13 06:26:02;;;;;;;2.50;1.60;;;18.30;99.90;;;18.25;57.75;101523.22;4976795;28;97254;-52
2023/05/13 06:28:28;;;;;;;3.03;1.97;;;18.30;99.90;;;18.26;57.83;101524.94;4986358;28;104020;-51
2023/05/13 06:30:53;;;;;;;1.80;1.70;;;18.30;99.90;;;18.29;57.44;101530.13;4979537;27;113648;-51
2023/05/13 06:33:19;;;;;;;2.07;1.67;;;18.40;99.90;;;18.31;57.63;101530.88;4973835;28;98533;-47
2023/05/13 06:35:48;;;;;;;1.57;1.37;;;18.40;99.90;;;18.33;57.40;101526.31;4975057;28;97192;-48
2023/05/13 06:38:17;;;;;;;1.70;1.47;;;18.40;99.90;;;18.36;57.22;101532.34;4980550;27;97608;-51
2023/05/13 06:40:44;;;;;;;1.90;1.60;;;18.50;99.90;;;18.40;57.45;101533.06;4975109;28;97590;-48
2023/05/13 06:43:16;;;;;;;1.67;1.30;;;18.50;99.90;;;18.42;57.30;101536.53;4979395;28;99505;-46
2023/05/13 06:45:42;;;;;;;8.83;3.00;;;18.60;99.90;;;18.33;56.16;101535.19;4973521;28;97355;-49
2023/05/13 06:48:08;;;;;;;2.80;2.30;;;18.40;99.90;;;18.28;56.72;101537.25;4974475;28;97367;-49
2023/05/13 06:50:34;;;;;;;3.23;2.93;;;18.30;99.90;;;18.28;56.66;101545.28;4980968;28;97751;-48
2023/05/13 06:53:00;;;;;;;3.13;2.30;;;18.30;99.90;;;18.29;57.42;101551.47;4970690;27;101196;-48
2023/05/13 06:55:26;;;;;;;2.67;1.87;;;18.30;99.90;;;18.31;57.25;101554.94;4973520;28;107823;-50
2023/05/13 06:57:52;;;;;;;1.97;1.60;;;18.30;99.90;;;18.28;57.53;101547.09;4974181;28;98135;-49
2023/05/13 07:00:17;;;;;;;2.53;1.67;;;18.40;99.90;;;18.22;57.54;101552.75;4976118;28;97408;-47
2023/05/13 07:02:44;;;;;;;1.67;1.50;;;18.40;99.90;;;18.23;57.65;101546.47;4979401;27;98109;-48
2023/05/13 07:05:11;;;;;;;2.07;1.60;;;18.40;99.90;;;18.27;57.50;101543.56;4984881;27;97280;-49
2023/05/13 07:07:36;;;;;;;2.07;1.80;;;18.40;99.90;;;18.36;57.14;101542.19;4966198;27;97483;-49
2023/05/13 07:10:03;;;;;;;2.43;1.80;;;18.50;99.90;;;18.39;57.04;101529.53;4978681;27;98774;-46
2023/05/13 07:12:28;;;;;;;1.50;1.30;;;18.50;99.90;;;18.41;56.94;101534.78;4986261;27;97617;-48
2023/05/13 07:14:54;;;;;;;2.20;1.50;;;18.50;99.90;;;18.45;57.05;101541.69;4977365;27;97490;-54
2023/05/13 07:17:20;;;;;;;4.73;2.70;;;18.60;99.90;;;18.42;57.53;101541.84;4984046;28;97255;-46
2023/05/13 07:19:46;;;;;;;3.57;2.70;;;18.50;99.90;;;18.38;54.05;101541.19;4981716;27;97616;-48
2023/05/13 07:22:12;;;;;;;3.73;2.97;;;18.40;99.90;;;18.35;56.42;101551.13;4975197;27;97198;-46
2023/05/13 07:24:38;;;;;;;2.63;2.20;;;18.40;99.90;;;18.33;54.87;101537.88;4971285;28;97218;-45
2023/05/13 07:27:04;;;;;;;3.53;2.93;;;18.40;99.90;;;18.31;54.34;101544.25;4983025;28;97537;-46
2023/05/13 07:29:31;;;;;;;2.80;2.50;;;18.30;99.90;;;18.28;53.84;101539.06;4979546;28;97401;-50
2023/05/13 07:31:56;;;;;;;3.23;2.47;;;18.30;99.90;;;18.26;56.07;101543.63;4985972;27;97102;-48
2023/05/13 07:34:23;;;;;;;4.37;2.57;;;18.20;99.90;;;18.28;56.42;101547.09;4979026;28;97460;-48
2023/05/13 07:36:49;;;;;;;1.90;1.67;;;18.30;99.90;;;18.28;57.15;101555.97;4981046;27;97644;-47
2023/05/13 07:39:14;;;;;;;6.07;2.97;;;18.30;99.90;;;18.31;55.73;101552.25;4982216;27;108020;-46
2023/05/13 07:41:40;;;;;;;3.33;2.60;;;18.40;99.90;;;18.29;56.19;101546.13;4975241;27;110075;-49
2023/05/13 07:44:10;;;;;;;3.23;2.40;;;18.30;99.90;;;18.28;55.38;101544.41;4983364;27;100435;-49
2023/05/13 07:46:36;;;;;;;4.77;3.00;;;18.30;99.90;;;18.25;54.81;101556.13;4976450;27;97015;-55
2023/05/13 07:49:05;;;;;;;3.80;3.03;;;18.20;99.90;;;18.25;56.89;101544.59;4977605;27;113977;-49
2023/05/13 07:51:31;;;;;;;3.30;2.90;;;18.20;99.90;;;18.26;56.87;101551.66;4974782;28;97638;-46
2023/05/13 07:53:57;;;;;;;3.77;2.87;;;18.30;99.90;;;18.28;54.89;101555.97;4974529;28;97904;-46
2023/05/13 07:56:23;;;;;;;2.73;2.37;;;18.30;99.90;;;18.27;55.59;101548.91;4980916;28;97382;-46
2023/05/13 07:58:49;;;;;;;4.13;3.40;;;18.30;99.90;;;18.24;54.63;101549.06;4980915;27;106919;-48
2023/05/13 08:01:15;;;;;;;4.97;3.00;;;18.20;99.90;;;18.23;53.96;101550.00;4981444;27;97202;-52
2023/05/13 08:03:41;;;;;;;5.00;3.60;;;18.20;99.90;;;18.25;56.14;101547.25;4984739;27;97167;-49
2023/05/13 08:06:07;;;;;;;6.17;3.73;;;18.20;99.90;;;18.27;56.71;101553.38;4990932;28;97126;-47
2023/05/13 08:08:35;;;;;;;7.50;4.30;;;18.30;99.90;;;18.30;55.12;101548.72;4990538;27;97047;-51
2023/05/13 08:11:01;;;;;;;5.50;3.50;;;18.40;99.90;;;18.32;54.79;101549.50;4979542;27;100612;-48
2023/05/13 08:13:27;;;;;;;7.40;3.43;;;18.40;99.90;;;18.33;55.29;101547.69;4973840;28;97704;-52
2023/05/13 08:15:53;;;;;;;4.67;2.87;;;18.40;99.90;;;18.33;54.81;101547.69;4981950;27;98903;-52
2023/05/13 08:18:19;;;;;;;6.47;4.27;;;18.40;99.90;;;18.35;54.99;101538.66;4979967;27;103908;-52
2023/05/13 08:20:45;;;;;;;6.37;4.20;;;18.40;99.90;;;18.37;55.80;101541.22;4983803;28;109359;-51
2023/05/13 08:23:11;;;;;;;7.03;4.03;;;18.40;99.90;;;18.39;55.03;101552.72;4986140;27;99943;-46
2023/05/13 08:25:36;;;;;;;6.30;3.97;;;18.40;99.90;;;18.42;55.28;101549.88;4983679;28;97541;-47
2023/05/13 08:28:02;;;;;;;6.17;4.27;;;18.50;99.90;;;18.44;55.38;101550.66;4984259;27;97707;-51
2023/05/13 08:30:28;;;;;;;5.27;4.07;;;18.50;99.90;;;18.44;54.59;101550.66;4982895;28;97720;-49
2023/05/13 08:32:54;;;;;;;5.57;4.07;;;18.50;99.90;;;18.47;53.38;101549.63;4980769;27;97512;-52
2023/05/13 08:35:20;;;;;;;4.40;3.60;;;18.60;99.90;;;18.50;53.89;101547.63;4987883;27;97784;-51
2023/05/13 08:37:46;;;;;;;6.97;3.30;;;18.60;99.90;;;18.51;54.11;101544.00;4978011;28;99575;-48
2023/05/13 08:40:12;;;;;;;4.20;3.40;;;18.60;99.90;;;18.54;54.69;101535.84;4971596;28;97661;-49
2023/05/13 08:42:38;;;;;;;5.57;4.10;;;18.70;99.90;;;18.59;54.76;101532.91;4977653;28;97415;-47
2023/05/13 08:45:07;;;;;;;4.73;3.63;;;18.70;99.90;;;18.59;54.26;101533.78;4964131;28;96959;-46
2023/05/13 08:47:47;;;;;;;4.40;3.60;;;18.70;99.90;;;18.64;55.03;101530.88;4980445;28;97985;-48
2023/05/13 08:50:13;;;;;;;5.10;3.43;;;18.80;99.90;;;18.63;54.00;101535.34;4979746;27;100473;-49
2023/05/13 08:52:39;;;;;;;5.13;3.50;;;18.80;99.90;;;18.66;54.82;101529.88;4974277;28;97253;-49
2023/05/13 08:55:07;;;;;;;5.47;2.77;;;18.80;99.90;;;18.68;54.29;101530.63;4977802;27;97087;-51
2023/05/13 08:57:33;;;;;;;6.77;3.60;;;18.90;99.90;;;18.70;53.26;101531.41;4986002;27;98341;-50
2023/05/13 08:59:59;;;;;;;4.53;2.97;;;18.90;99.90;;;18.74;53.04;101526.75;4980437;27;97313;-48
2023/05/13 09:02:25;;;;;;;4.30;3.00;;;18.90;99.90;;;18.77;53.51;101529.25;4968653;28;97296;-52
2023/05/13 09:04:54;;;;;;;5.20;3.27;;;18.90;99.90;;;18.80;54.08;101526.38;4974402;28;97114;-47
2023/05/13 09:07:19;;;;;;;3.13;2.80;;;19.00;99.90;;;18.78;54.42;101527.44;4994078;27;97306;-48
2023/05/13 09:09:45;;;;;;;4.93;3.33;;;19.00;99.90;;;18.85;54.90;101520.81;4977823;28;97073;-53
2023/05/13 09:12:11;;;;;;;5.47;2.90;;;19.00;99.90;;;18.87;54.46;101525.13;5006363;28;97189;-47
2023/05/13 09:14:37;;;;;;;5.97;3.43;;;19.00;99.90;;;18.94;55.24;101522.94;4980080;27;96978;-45
2023/05/13 09:17:04;;;;;;;5.23;3.40;;;19.10;99.90;;;18.97;53.73;101514.78;4980392;28;97796;-50
2023/05/13 09:19:30;;;;;;;4.30;2.90;;;19.20;99.90;;;18.98;55.73;101516.50;4978502;28;96833;-45
2023/05/13 09:21:56;;;;;;;6.07;3.53;;;19.20;99.90;;;19.04;53.46;101529.50;4985929;27;104418;-51
2023/05/13 09:24:22;;;;;;;6.37;3.27;;;19.20;99.90;;;19.08;52.83;101523.00;4982724;28;97174;-46
2023/05/13 09:26:50;;;;;;;4.50;3.27;;;19.30;99.90;;;19.13;53.61;101523.63;4984674;27;97058;-47
2023/05/13 09:29:30;;;;;;;6.80;2.97;;;19.30;99.90;;;19.14;54.09;101514.66;4988005;27;97421;-45
2023/05/13 09:31:59;;;;;;;4.73;3.00;;;19.30;99.90;;;19.15;54.72;101511.03;4983631;27;97110;-46
2023/05/13 09:34:33;;;;;;;3.53;2.90;;;19.30;99.90;;;19.20;54.12;101508.94;4989534;27;97348;-49
2023/05/13 09:37:07;;;;;;;4.07;3.10;;;19.40;99.90;;;19.26;52.14;101508.59;4979921;27;97091;-45
2023/05/13 09:39:40;;;;;;;4.67;3.20;;;19.40;99.90;;;19.31;52.98;101506.50;4986343;28;96813;-47
2023/05/13 09:42:15;;;;;;;3.10;2.57;;;19.50;99.90;;;19.37;53.08;101505.28;4972251;27;97181;-51
2023/05/13 09:44:43;;;;;;;3.70;2.90;;;19.50;99.90;;;19.35;52.77;101498.28;4960981;27;99529;-48
2023/05/13 09:47:16;;;;;;;4.77;2.87;;;19.50;99.90;;;19.40;54.04;101504.25;4965327;28;100785;-46
2023/05/13 09:49:44;;;;;;;3.60;2.80;;;19.60;99.90;;;19.45;52.75;101491.47;4963408;28;97914;-48
2023/05/13 09:52:15;;;;;;;4.70;3.20;;;19.60;99.90;;;19.43;53.92;101501.41;4954304;28;98598;-49
2023/05/13 09:54:41;;;;;;;3.07;2.60;;;19.60;99.90;;;19.39;53.55;101494.50;4960537;28;97447;-49
2023/05/13 09:57:07;;;;;;;5.37;3.47;;;19.60;99.90;;;19.46;52.96;101488.69;4965230;28;105943;-48
2023/05/13 09:59:33;;;;;;;4.90;3.17;;;19.70;99.90;;;19.48;53.50;101483.25;4966415;28;97250;-45
2023/05/13 10:02:06;;;;;;;4.53;3.17;;;19.70;99.90;;;19.48;53.23;101480.56;4962738;28;97334;-47
2023/05/13 10:04:32;;;;;;;9.97;3.03;;;19.70;99.90;;;19.59;51.99;101478.16;4964436;28;97650;-49
2023/05/13 10:07:02;;;;;;;3.63;3.00;;;19.80;99.90;;;19.65;52.85;101476.91;4958535;28;97658;-46
2023/05/13 10:09:35;;;;;;;5.40;2.80;;;19.90;99.90;;;19.71;52.06;101471.19;4964863;28;100049;-46